Monterey, IN (46960)

02:23 EDT le 22 octobre 2014 (GMT -0400)
400 west | Change Station
CLOSE
Current Station
Stations météorologiques personnelles
Location: Rochester, IN
Altitude: 745 ft
Stations météo à proximité

Alt. 745 ft 41.09 °N, 86.32 °W | Updated 5 seconds ago

Ciel dégagé
Ciel dégagé
38.0 ° F
Paraît 38 ° F
N
0.0
Vent Variable Vent de NO
Gusts 0.0 mph

Aujourd'hui
Haut(e) -- | Bas -- ° F
--% Risque de précip.
Hier
Haut(e) -- | Bas -- ° F
Precip. -- pouce
8:05 AM 6:54 PM
Lune descendante, 3% visible
Pression 30.25 pouce
Visibilité 10.0 Miles terrestres
Nuages Ciel dégagé
Refroidissement éolien 38 ° F
Point de rosée 36 ° F
Humidité 94%
Précipitations 0.00 pouce
Profondeur de la couche neigeuse Non disponible.
UV 0.0 sur 12
Pollen 1.20 sur 12
Qualité de l'air Non disponible.
Flu Activity Sporadic
METAR KOXI 220615Z AUTO 00000KT 10SM CLR 01/00 A3025 RMK AO1 T00120003

More Conditions Fewer Conditions

Pression 30.25 pouce
Visibilité 10.0 Miles terrestres
Nuages Ciel dégagé
Refroidissement éolien 38 ° F
Point de rosée 36 ° F
Humidité 94%
Précipitations 0.00 pouce
Profondeur de la couche neigeuse Non disponible.
UV 0.0 sur 12
Pollen 1.20 sur 12
Qualité de l'air Non disponible.
Flu Activity Sporadic
METAR KOXI 220615Z AUTO 00000KT 10SM CLR 01/00 A3025 RMK AO1 T00120003

More Conditions Fewer Conditions

10-Day Weather Forecast

Almanac

Astronomie

Oct. 22, 2014 Lever Coucher
Temps réel 08:05 EDT 18:54 EDT
Crépuscule civil 07:37 EDT 19:22 EDT
Crépuscule nautique 07:05 EDT 19:55 EDT
Crépuscule astronomique 06:33 EDT 20:26 EDT
Lune 06:45 EDT 18:21 EDT
Durée de lumière visible 11h 45m
Longueur du jour
10h 49m
Tomorrow will be 2m 34s shorter.
Lune descendante, 3% of the Moon is Illuminated
Aujourd'hui
Lune descendante
Oct 23
Nouveau
Oct 30
Premier quartier
Nov 6
Pleine lune
Nov 14
Dernier quartier

Extrêmes aujourd'hui

State Highs State Lows

Community

WunderPhotos

Upload Photos

1,763,885 Photos téléchargées !

Nearby

Épaisseur de neige

Station Depth Altitude
Pas de nouvelles chutes de neige

Activité sismique

Ville Distance Mag. Time & Date
No recent earthquake activity has been reported nearby.
Minimum magnitude displayed is 2.5.

Températures des eaux côtières

Lieu Température
Aucun rapport de station

Stations météo à proximité